sensor_id;sensor_type;location;lat;lon;timestamp;P1;durP1;ratioP1;P2;durP2;ratioP2
15063;SDS011;7631;52.088;5.088;2023-04-25T00:00:13;5.20;;;1.60;;
15063;SDS011;7631;52.088;5.088;2023-04-25T00:02:39;5.13;;;2.00;;
15063;SDS011;7631;52.088;5.088;2023-04-25T00:05:04;4.63;;;1.70;;
15063;SDS011;7631;52.088;5.088;2023-04-25T00:07:29;3.53;;;1.40;;
15063;SDS011;7631;52.088;5.088;2023-04-25T00:09:56;3.93;;;1.73;;
15063;SDS011;7631;52.088;5.088;2023-04-25T00:12:21;4.87;;;1.73;;
15063;SDS011;7631;52.088;5.088;2023-04-25T00:14:47;5.13;;;1.93;;
15063;SDS011;7631;52.088;5.088;2023-04-25T00:17:14;3.97;;;1.80;;
15063;SDS011;7631;52.088;5.088;2023-04-25T00:19:39;4.40;;;1.70;;
15063;SDS011;7631;52.088;5.088;2023-04-25T00:22:05;5.00;;;1.53;;
15063;SDS011;7631;52.088;5.088;2023-04-25T00:24:30;5.37;;;1.70;;
15063;SDS011;7631;52.088;5.088;2023-04-25T00:26:55;4.97;;;1.73;;
15063;SDS011;7631;52.088;5.088;2023-04-25T00:29:21;4.73;;;1.80;;
15063;SDS011;7631;52.088;5.088;2023-04-25T00:31:46;4.33;;;1.50;;
15063;SDS011;7631;52.088;5.088;2023-04-25T00:34:11;4.50;;;1.53;;
15063;SDS011;7631;52.088;5.088;2023-04-25T00:36:36;2.67;;;1.27;;
15063;SDS011;7631;52.088;5.088;2023-04-25T00:39:02;4.70;;;1.63;;
15063;SDS011;7631;52.088;5.088;2023-04-25T00:41:29;3.43;;;1.30;;
15063;SDS011;7631;52.088;5.088;2023-04-25T00:43:55;4.07;;;1.80;;
15063;SDS011;7631;52.088;5.088;2023-04-25T00:46:21;2.33;;;1.57;;
15063;SDS011;7631;52.088;5.088;2023-04-25T00:48:46;3.80;;;1.77;;
15063;SDS011;7631;52.088;5.088;2023-04-25T00:51:13;4.77;;;1.63;;
15063;SDS011;7631;52.088;5.088;2023-04-25T00:53:40;2.53;;;1.40;;
15063;SDS011;7631;52.088;5.088;2023-04-25T00:56:05;4.07;;;1.53;;
15063;SDS011;7631;52.088;5.088;2023-04-25T00:58:31;4.20;;;1.93;;
15063;SDS011;7631;52.088;5.088;2023-04-25T01:00:56;6.17;;;1.80;;
15063;SDS011;7631;52.088;5.088;2023-04-25T01:03:22;3.50;;;1.60;;
15063;SDS011;7631;52.088;5.088;2023-04-25T01:05:47;3.47;;;1.97;;
15063;SDS011;7631;52.088;5.088;2023-04-25T01:08:13;4.07;;;1.60;;
15063;SDS011;7631;52.088;5.088;2023-04-25T01:10:39;4.17;;;1.90;;
15063;SDS011;7631;52.088;5.088;2023-04-25T01:13:04;2.93;;;1.57;;
15063;SDS011;7631;52.088;5.088;2023-04-25T01:15:29;3.40;;;1.70;;
15063;SDS011;7631;52.088;5.088;2023-04-25T01:17:55;5.20;;;1.83;;
15063;SDS011;7631;52.088;5.088;2023-04-25T01:20:23;2.00;;;1.30;;
15063;SDS011;7631;52.088;5.088;2023-04-25T01:22:50;5.47;;;2.03;;
15063;SDS011;7631;52.088;5.088;2023-04-25T01:25:15;2.97;;;1.70;;
15063;SDS011;7631;52.088;5.088;2023-04-25T01:27:40;3.80;;;1.87;;
15063;SDS011;7631;52.088;5.088;2023-04-25T01:30:06;3.63;;;1.67;;
15063;SDS011;7631;52.088;5.088;2023-04-25T01:32:31;4.30;;;1.53;;
15063;SDS011;7631;52.088;5.088;2023-04-25T01:35:03;3.60;;;1.70;;
15063;SDS011;7631;52.088;5.088;2023-04-25T01:37:29;5.33;;;2.07;;
15063;SDS011;7631;52.088;5.088;2023-04-25T01:39:54;4.33;;;1.83;;
15063;SDS011;7631;52.088;5.088;2023-04-25T01:42:19;4.10;;;1.90;;
15063;SDS011;7631;52.088;5.088;2023-04-25T01:44:44;2.57;;;1.40;;
15063;SDS011;7631;52.088;5.088;2023-04-25T01:47:10;4.63;;;1.60;;
15063;SDS011;7631;52.088;5.088;2023-04-25T01:49:35;4.67;;;1.80;;
15063;SDS011;7631;52.088;5.088;2023-04-25T01:52:00;2.37;;;1.63;;
15063;SDS011;7631;52.088;5.088;2023-04-25T01:54:25;3.90;;;1.50;;
15063;SDS011;7631;52.088;5.088;2023-04-25T01:56:51;2.13;;;1.20;;
15063;SDS011;7631;52.088;5.088;2023-04-25T01:59:16;3.27;;;1.27;;
15063;SDS011;7631;52.088;5.088;2023-04-25T02:01:43;4.40;;;1.83;;
15063;SDS011;7631;52.088;5.088;2023-04-25T02:04:08;3.20;;;1.60;;
15063;SDS011;7631;52.088;5.088;2023-04-25T02:06:33;3.43;;;1.60;;
15063;SDS011;7631;52.088;5.088;2023-04-25T02:08:58;4.03;;;1.87;;
15063;SDS011;7631;52.088;5.088;2023-04-25T02:11:23;3.33;;;1.50;;
15063;SDS011;7631;52.088;5.088;2023-04-25T02:13:49;3.33;;;1.80;;
15063;SDS011;7631;52.088;5.088;2023-04-25T02:16:14;3.23;;;1.50;;
15063;SDS011;7631;52.088;5.088;2023-04-25T02:18:39;5.13;;;1.50;;
15063;SDS011;7631;52.088;5.088;2023-04-25T02:21:04;4.83;;;1.70;;
15063;SDS011;7631;52.088;5.088;2023-04-25T02:23:29;3.03;;;1.40;;
15063;SDS011;7631;52.088;5.088;2023-04-25T02:25:56;2.47;;;1.30;;
15063;SDS011;7631;52.088;5.088;2023-04-25T02:28:23;2.87;;;1.57;;
15063;SDS011;7631;52.088;5.088;2023-04-25T02:30:48;3.00;;;1.50;;
15063;SDS011;7631;52.088;5.088;2023-04-25T02:33:13;3.60;;;1.90;;
15063;SDS011;7631;52.088;5.088;2023-04-25T02:35:38;3.90;;;1.80;;
15063;SDS011;7631;52.088;5.088;2023-04-25T02:38:03;2.60;;;1.40;;
15063;SDS011;7631;52.088;5.088;2023-04-25T02:40:29;3.47;;;1.70;;
15063;SDS011;7631;52.088;5.088;2023-04-25T02:42:54;2.80;;;1.40;;
15063;SDS011;7631;52.088;5.088;2023-04-25T02:45:19;3.00;;;1.60;;
15063;SDS011;7631;52.088;5.088;2023-04-25T02:47:45;4.73;;;1.87;;
15063;SDS011;7631;52.088;5.088;2023-04-25T02:50:10;3.17;;;1.40;;
15063;SDS011;7631;52.088;5.088;2023-04-25T02:52:36;3.20;;;1.60;;
15063;SDS011;7631;52.088;5.088;2023-04-25T02:55:01;3.80;;;1.70;;
15063;SDS011;7631;52.088;5.088;2023-04-25T02:57:26;3.50;;;1.60;;
15063;SDS011;7631;52.088;5.088;2023-04-25T02:59:51;2.30;;;1.47;;
15063;SDS011;7631;52.088;5.088;2023-04-25T03:02:16;4.73;;;1.67;;
15063;SDS011;7631;52.088;5.088;2023-04-25T03:04:42;4.27;;;1.70;;
15063;SDS011;7631;52.088;5.088;2023-04-25T03:07:07;4.43;;;1.70;;
15063;SDS011;7631;52.088;5.088;2023-04-25T03:09:32;2.73;;;1.40;;
15063;SDS011;7631;52.088;5.088;2023-04-25T03:11:57;1.80;;;1.50;;
15063;SDS011;7631;52.088;5.088;2023-04-25T03:14:23;4.30;;;1.70;;
15063;SDS011;7631;52.088;5.088;2023-04-25T03:16:48;4.03;;;1.70;;
15063;SDS011;7631;52.088;5.088;2023-04-25T03:19:13;3.50;;;1.50;;
15063;SDS011;7631;52.088;5.088;2023-04-25T03:21:40;3.53;;;1.60;;
15063;SDS011;7631;52.088;5.088;2023-04-25T03:24:06;3.83;;;2.00;;
15063;SDS011;7631;52.088;5.088;2023-04-25T03:26:31;3.27;;;1.50;;
15063;SDS011;7631;52.088;5.088;2023-04-25T03:28:56;4.37;;;1.90;;
15063;SDS011;7631;52.088;5.088;2023-04-25T03:31:21;2.77;;;1.50;;
15063;SDS011;7631;52.088;5.088;2023-04-25T03:33:47;3.57;;;1.60;;
15063;SDS011;7631;52.088;5.088;2023-04-25T03:36:12;3.93;;;1.93;;
15063;SDS011;7631;52.088;5.088;2023-04-25T03:38:37;3.83;;;1.67;;
15063;SDS011;7631;52.088;5.088;2023-04-25T03:41:03;2.30;;;1.40;;
15063;SDS011;7631;52.088;5.088;2023-04-25T03:43:28;4.13;;;1.33;;
15063;SDS011;7631;52.088;5.088;2023-04-25T03:45:53;2.57;;;1.37;;
15063;SDS011;7631;52.088;5.088;2023-04-25T03:48:18;3.50;;;2.03;;
15063;SDS011;7631;52.088;5.088;2023-04-25T03:50:46;3.83;;;1.60;;
15063;SDS011;7631;52.088;5.088;2023-04-25T03:53:11;4.10;;;1.37;;
15063;SDS011;7631;52.088;5.088;2023-04-25T03:55:37;4.20;;;1.43;;
15063;SDS011;7631;52.088;5.088;2023-04-25T03:58:02;3.27;;;1.77;;
15063;SDS011;7631;52.088;5.088;2023-04-25T04:00:27;2.93;;;1.60;;
15063;SDS011;7631;52.088;5.088;2023-04-25T04:02:52;2.30;;;1.20;;
15063;SDS011;7631;52.088;5.088;2023-04-25T04:05:18;3.73;;;1.40;;
15063;SDS011;7631;52.088;5.088;2023-04-25T04:07:43;2.57;;;1.40;;
15063;SDS011;7631;52.088;5.088;2023-04-25T04:10:09;2.60;;;1.30;;
15063;SDS011;7631;52.088;5.088;2023-04-25T04:12:34;3.63;;;1.57;;
15063;SDS011;7631;52.088;5.088;2023-04-25T04:15:00;4.30;;;1.20;;
15063;SDS011;7631;52.088;5.088;2023-04-25T04:17:26;2.70;;;1.67;;
15063;SDS011;7631;52.088;5.088;2023-04-25T04:19:51;2.43;;;1.40;;
15063;SDS011;7631;52.088;5.088;2023-04-25T04:22:16;2.33;;;1.20;;
15063;SDS011;7631;52.088;5.088;2023-04-25T04:24:41;3.03;;;1.40;;
15063;SDS011;7631;52.088;5.088;2023-04-25T04:27:11;2.40;;;1.17;;
15063;SDS011;7631;52.088;5.088;2023-04-25T04:29:38;3.17;;;1.67;;
15063;SDS011;7631;52.088;5.088;2023-04-25T04:32:03;3.47;;;1.53;;
15063;SDS011;7631;52.088;5.088;2023-04-25T04:34:28;3.33;;;1.30;;
15063;SDS011;7631;52.088;5.088;2023-04-25T04:36:53;3.27;;;1.27;;
15063;SDS011;7631;52.088;5.088;2023-04-25T04:39:19;3.83;;;1.63;;
15063;SDS011;7631;52.088;5.088;2023-04-25T04:41:45;4.07;;;1.30;;
15063;SDS011;7631;52.088;5.088;2023-04-25T04:44:10;4.40;;;1.40;;
15063;SDS011;7631;52.088;5.088;2023-04-25T04:46:35;2.20;;;1.47;;
15063;SDS011;7631;52.088;5.088;2023-04-25T04:49:06;2.17;;;1.27;;
15063;SDS011;7631;52.088;5.088;2023-04-25T04:51:32;4.83;;;1.30;;
15063;SDS011;7631;52.088;5.088;2023-04-25T04:53:58;3.07;;;1.30;;
15063;SDS011;7631;52.088;5.088;2023-04-25T04:56:27;1.70;;;0.97;;
15063;SDS011;7631;52.088;5.088;2023-04-25T04:58:53;2.43;;;1.30;;
15063;SDS011;7631;52.088;5.088;2023-04-25T05:01:18;1.93;;;1.33;;
15063;SDS011;7631;52.088;5.088;2023-04-25T05:03:43;2.23;;;1.30;;
15063;SDS011;7631;52.088;5.088;2023-04-25T05:06:08;2.43;;;1.30;;
15063;SDS011;7631;52.088;5.088;2023-04-25T05:08:34;3.00;;;1.50;;
15063;SDS011;7631;52.088;5.088;2023-04-25T05:10:59;2.87;;;1.20;;
15063;SDS011;7631;52.088;5.088;2023-04-25T05:13:24;2.60;;;1.20;;
15063;SDS011;7631;52.088;5.088;2023-04-25T05:15:49;3.13;;;1.47;;
15063;SDS011;7631;52.088;5.088;2023-04-25T05:18:15;3.27;;;1.60;;
15063;SDS011;7631;52.088;5.088;2023-04-25T05:20:40;3.60;;;1.30;;
15063;SDS011;7631;52.088;5.088;2023-04-25T05:23:05;2.30;;;1.20;;
15063;SDS011;7631;52.088;5.088;2023-04-25T05:25:31;3.77;;;2.00;;
15063;SDS011;7631;52.088;5.088;2023-04-25T05:27:56;2.97;;;1.27;;
15063;SDS011;7631;52.088;5.088;2023-04-25T05:30:21;3.37;;;1.20;;
15063;SDS011;7631;52.088;5.088;2023-04-25T05:32:47;3.13;;;1.43;;
15063;SDS011;7631;52.088;5.088;2023-04-25T05:35:12;3.67;;;1.47;;
15063;SDS011;7631;52.088;5.088;2023-04-25T05:37:37;3.80;;;1.30;;
15063;SDS011;7631;52.088;5.088;2023-04-25T05:40:03;3.43;;;1.10;;
15063;SDS011;7631;52.088;5.088;2023-04-25T05:42:31;4.33;;;1.37;;
15063;SDS011;7631;52.088;5.088;2023-04-25T05:44:56;3.50;;;1.30;;
15063;SDS011;7631;52.088;5.088;2023-04-25T05:47:22;2.53;;;1.30;;
15063;SDS011;7631;52.088;5.088;2023-04-25T05:49:47;3.03;;;1.20;;
15063;SDS011;7631;52.088;5.088;2023-04-25T05:52:12;2.40;;;1.17;;
15063;SDS011;7631;52.088;5.088;2023-04-25T05:54:37;2.67;;;1.20;;
15063;SDS011;7631;52.088;5.088;2023-04-25T05:57:02;2.13;;;1.00;;
15063;SDS011;7631;52.088;5.088;2023-04-25T05:59:28;3.20;;;1.50;;
15063;SDS011;7631;52.088;5.088;2023-04-25T06:01:53;4.20;;;1.50;;
15063;SDS011;7631;52.088;5.088;2023-04-25T06:04:18;3.70;;;1.50;;
15063;SDS011;7631;52.088;5.088;2023-04-25T06:06:43;4.77;;;1.27;;
15063;SDS011;7631;52.088;5.088;2023-04-25T06:09:08;5.57;;;1.40;;
15063;SDS011;7631;52.088;5.088;2023-04-25T06:11:34;4.87;;;1.50;;
15063;SDS011;7631;52.088;5.088;2023-04-25T06:13:59;5.33;;;1.53;;
15063;SDS011;7631;52.088;5.088;2023-04-25T06:16:24;5.87;;;1.97;;
15063;SDS011;7631;52.088;5.088;2023-04-25T06:18:50;3.43;;;1.30;;
15063;SDS011;7631;52.088;5.088;2023-04-25T06:21:16;5.27;;;1.60;;
15063;SDS011;7631;52.088;5.088;2023-04-25T06:23:41;4.20;;;1.50;;
15063;SDS011;7631;52.088;5.088;2023-04-25T06:26:06;4.33;;;1.43;;
15063;SDS011;7631;52.088;5.088;2023-04-25T06:28:31;4.57;;;1.43;;
15063;SDS011;7631;52.088;5.088;2023-04-25T06:30:56;3.13;;;1.23;;
15063;SDS011;7631;52.088;5.088;2023-04-25T06:33:22;5.00;;;1.70;;
15063;SDS011;7631;52.088;5.088;2023-04-25T06:35:49;2.60;;;0.97;;
15063;SDS011;7631;52.088;5.088;2023-04-25T06:38:14;4.77;;;1.53;;
15063;SDS011;7631;52.088;5.088;2023-04-25T06:40:40;3.27;;;1.40;;
15063;SDS011;7631;52.088;5.088;2023-04-25T06:43:05;3.50;;;1.27;;
15063;SDS011;7631;52.088;5.088;2023-04-25T06:45:30;4.73;;;1.40;;
15063;SDS011;7631;52.088;5.088;2023-04-25T06:47:56;3.37;;;1.63;;
15063;SDS011;7631;52.088;5.088;2023-04-25T06:50:21;4.13;;;1.50;;
15063;SDS011;7631;52.088;5.088;2023-04-25T06:52:46;2.67;;;1.20;;
15063;SDS011;7631;52.088;5.088;2023-04-25T06:55:11;2.83;;;1.37;;
15063;SDS011;7631;52.088;5.088;2023-04-25T06:57:37;1.93;;;1.20;;
15063;SDS011;7631;52.088;5.088;2023-04-25T07:00:03;4.17;;;1.30;;
15063;SDS011;7631;52.088;5.088;2023-04-25T07:02:30;4.37;;;1.40;;
15063;SDS011;7631;52.088;5.088;2023-04-25T07:04:55;3.53;;;1.30;;
15063;SDS011;7631;52.088;5.088;2023-04-25T07:07:24;2.23;;;1.20;;
15063;SDS011;7631;52.088;5.088;2023-04-25T07:09:49;1.93;;;1.20;;
15063;SDS011;7631;52.088;5.088;2023-04-25T07:12:15;2.23;;;1.00;;
15063;SDS011;7631;52.088;5.088;2023-04-25T07:14:40;3.60;;;1.33;;
15063;SDS011;7631;52.088;5.088;2023-04-25T07:17:05;2.20;;;1.17;;
15063;SDS011;7631;52.088;5.088;2023-04-25T07:19:31;4.23;;;1.33;;
15063;SDS011;7631;52.088;5.088;2023-04-25T07:21:57;3.60;;;1.33;;
15063;SDS011;7631;52.088;5.088;2023-04-25T07:24:22;2.33;;;1.33;;
15063;SDS011;7631;52.088;5.088;2023-04-25T07:26:47;4.43;;;1.57;;
15063;SDS011;7631;52.088;5.088;2023-04-25T07:29:13;2.93;;;1.00;;
15063;SDS011;7631;52.088;5.088;2023-04-25T07:31:38;2.83;;;1.30;;
15063;SDS011;7631;52.088;5.088;2023-04-25T07:34:04;3.63;;;1.23;;
15063;SDS011;7631;52.088;5.088;2023-04-25T07:36:30;3.27;;;1.30;;
15063;SDS011;7631;52.088;5.088;2023-04-25T07:38:55;5.27;;;1.37;;
15063;SDS011;7631;52.088;5.088;2023-04-25T07:41:21;4.10;;;1.40;;
15063;SDS011;7631;52.088;5.088;2023-04-25T07:43:46;2.30;;;1.07;;
15063;SDS011;7631;52.088;5.088;2023-04-25T07:46:11;3.53;;;1.20;;
15063;SDS011;7631;52.088;5.088;2023-04-25T07:48:37;2.10;;;1.13;;
15063;SDS011;7631;52.088;5.088;2023-04-25T07:51:02;1.60;;;0.97;;
15063;SDS011;7631;52.088;5.088;2023-04-25T07:53:29;3.13;;;1.23;;
15063;SDS011;7631;52.088;5.088;2023-04-25T07:55:54;3.93;;;1.20;;
15063;SDS011;7631;52.088;5.088;2023-04-25T07:58:20;1.73;;;1.00;;
15063;SDS011;7631;52.088;5.088;2023-04-25T08:00:46;2.67;;;1.17;;
15063;SDS011;7631;52.088;5.088;2023-04-25T08:03:12;1.90;;;1.00;;
15063;SDS011;7631;52.088;5.088;2023-04-25T08:05:37;2.27;;;0.93;;
15063;SDS011;7631;52.088;5.088;2023-04-25T08:08:02;4.30;;;1.10;;
15063;SDS011;7631;52.088;5.088;2023-04-25T08:10:28;2.47;;;1.17;;
15063;SDS011;7631;52.088;5.088;2023-04-25T08:12:53;3.80;;;1.03;;
15063;SDS011;7631;52.088;5.088;2023-04-25T08:15:18;3.37;;;1.00;;
15063;SDS011;7631;52.088;5.088;2023-04-25T08:17:44;2.30;;;1.20;;
15063;SDS011;7631;52.088;5.088;2023-04-25T08:20:09;2.90;;;1.00;;
15063;SDS011;7631;52.088;5.088;2023-04-25T08:22:35;3.00;;;0.90;;
15063;SDS011;7631;52.088;5.088;2023-04-25T08:25:01;3.83;;;1.33;;
15063;SDS011;7631;52.088;5.088;2023-04-25T08:27:26;3.03;;;1.10;;
15063;SDS011;7631;52.088;5.088;2023-04-25T08:29:51;2.93;;;1.20;;
15063;SDS011;7631;52.088;5.088;2023-04-25T08:32:16;4.17;;;1.50;;
15063;SDS011;7631;52.088;5.088;2023-04-25T08:34:42;2.63;;;1.20;;
15063;SDS011;7631;52.088;5.088;2023-04-25T08:37:08;4.93;;;1.67;;
15063;SDS011;7631;52.088;5.088;2023-04-25T08:39:35;2.70;;;1.30;;
15063;SDS011;7631;52.088;5.088;2023-04-25T08:42:00;3.23;;;1.20;;
15063;SDS011;7631;52.088;5.088;2023-04-25T08:44:28;5.67;;;1.43;;
15063;SDS011;7631;52.088;5.088;2023-04-25T08:46:55;4.87;;;1.37;;
15063;SDS011;7631;52.088;5.088;2023-04-25T08:49:20;2.87;;;1.27;;
15063;SDS011;7631;52.088;5.088;2023-04-25T08:51:46;2.43;;;0.93;;
15063;SDS011;7631;52.088;5.088;2023-04-25T08:54:12;3.60;;;0.97;;
15063;SDS011;7631;52.088;5.088;2023-04-25T08:56:38;3.27;;;1.17;;
15063;SDS011;7631;52.088;5.088;2023-04-25T08:59:04;1.87;;;1.17;;
15063;SDS011;7631;52.088;5.088;2023-04-25T09:01:32;3.17;;;1.30;;
15063;SDS011;7631;52.088;5.088;2023-04-25T09:03:58;3.40;;;1.10;;
15063;SDS011;7631;52.088;5.088;2023-04-25T09:06:23;2.97;;;1.10;;
15063;SDS011;7631;52.088;5.088;2023-04-25T09:08:49;3.73;;;1.40;;
15063;SDS011;7631;52.088;5.088;2023-04-25T09:11:14;3.17;;;1.17;;
15063;SDS011;7631;52.088;5.088;2023-04-25T09:13:40;2.77;;;0.80;;
15063;SDS011;7631;52.088;5.088;2023-04-25T09:16:05;4.03;;;1.20;;
15063;SDS011;7631;52.088;5.088;2023-04-25T09:18:34;4.67;;;1.20;;
15063;SDS011;7631;52.088;5.088;2023-04-25T09:21:09;4.60;;;1.03;;
15063;SDS011;7631;52.088;5.088;2023-04-25T09:23:43;2.73;;;1.00;;
15063;SDS011;7631;52.088;5.088;2023-04-25T09:26:08;4.47;;;1.17;;
15063;SDS011;7631;52.088;5.088;2023-04-25T09:28:34;3.53;;;1.00;;
15063;SDS011;7631;52.088;5.088;2023-04-25T09:31:00;4.07;;;1.43;;
15063;SDS011;7631;52.088;5.088;2023-04-25T09:33:30;2.67;;;1.20;;
15063;SDS011;7631;52.088;5.088;2023-04-25T09:36:01;2.60;;;1.00;;
15063;SDS011;7631;52.088;5.088;2023-04-25T09:38:26;2.83;;;0.90;;
15063;SDS011;7631;52.088;5.088;2023-04-25T09:40:51;3.47;;;1.07;;
15063;SDS011;7631;52.088;5.088;2023-04-25T09:43:23;3.47;;;1.30;;
15063;SDS011;7631;52.088;5.088;2023-04-25T09:45:49;2.83;;;1.20;;
15063;SDS011;7631;52.088;5.088;2023-04-25T09:48:21;3.37;;;1.10;;
15063;SDS011;7631;52.088;5.088;2023-04-25T09:53:31;2.30;;;0.70;;
15063;SDS011;7631;52.088;5.088;2023-04-25T09:55:57;2.27;;;1.10;;
15063;SDS011;7631;52.088;5.088;2023-04-25T09:58:24;1.60;;;0.70;;
15063;SDS011;7631;52.088;5.088;2023-04-25T10:00:51;2.93;;;0.97;;
15063;SDS011;7631;52.088;5.088;2023-04-25T10:03:17;2.40;;;0.83;;
15063;SDS011;7631;52.088;5.088;2023-04-25T10:05:42;1.97;;;0.90;;
15063;SDS011;7631;52.088;5.088;2023-04-25T10:08:08;2.10;;;1.07;;
15063;SDS011;7631;52.088;5.088;2023-04-25T10:10:34;3.40;;;0.80;;
15063;SDS011;7631;52.088;5.088;2023-04-25T10:13:02;3.53;;;0.90;;
15063;SDS011;7631;52.088;5.088;2023-04-25T10:15:28;2.30;;;0.80;;
15063;SDS011;7631;52.088;5.088;2023-04-25T10:17:53;2.43;;;1.07;;
15063;SDS011;7631;52.088;5.088;2023-04-25T10:20:19;2.57;;;1.00;;
15063;SDS011;7631;52.088;5.088;2023-04-25T10:22:44;2.07;;;0.70;;
15063;SDS011;7631;52.088;5.088;2023-04-25T10:25:10;2.97;;;0.90;;
15063;SDS011;7631;52.088;5.088;2023-04-25T10:27:36;2.50;;;0.80;;
15063;SDS011;7631;52.088;5.088;2023-04-25T10:32:30;2.50;;;0.90;;
15063;SDS011;7631;52.088;5.088;2023-04-25T10:34:55;1.63;;;0.73;;
15063;SDS011;7631;52.088;5.088;2023-04-25T10:37:20;2.10;;;0.80;;
15063;SDS011;7631;52.088;5.088;2023-04-25T10:39:45;2.27;;;1.00;;
15063;SDS011;7631;52.088;5.088;2023-04-25T10:42:11;1.63;;;0.67;;
15063;SDS011;7631;52.088;5.088;2023-04-25T10:44:37;2.63;;;0.80;;
15063;SDS011;7631;52.088;5.088;2023-04-25T10:47:02;3.27;;;1.10;;
15063;SDS011;7631;52.088;5.088;2023-04-25T10:50:03;2.67;;;0.80;;
15063;SDS011;7631;52.088;5.088;2023-04-25T10:52:25;2.07;;;0.97;;
15063;SDS011;7631;52.088;5.088;2023-04-25T10:54:52;1.90;;;0.80;;
15063;SDS011;7631;52.088;5.088;2023-04-25T10:57:30;2.43;;;0.90;;
15063;SDS011;7631;52.088;5.088;2023-04-25T11:00:00;2.77;;;0.80;;
15063;SDS011;7631;52.088;5.088;2023-04-25T11:02:26;2.17;;;0.77;;
15063;SDS011;7631;52.088;5.088;2023-04-25T11:04:52;2.00;;;1.10;;
15063;SDS011;7631;52.088;5.088;2023-04-25T11:09:49;3.20;;;0.80;;
15063;SDS011;7631;52.088;5.088;2023-04-25T11:12:15;1.43;;;0.90;;
15063;SDS011;7631;52.088;5.088;2023-04-25T11:14:41;2.60;;;0.93;;
15063;SDS011;7631;52.088;5.088;2023-04-25T11:17:07;2.63;;;1.20;;
15063;SDS011;7631;52.088;5.088;2023-04-25T11:19:32;1.70;;;0.70;;
15063;SDS011;7631;52.088;5.088;2023-04-25T11:22:01;2.80;;;1.07;;
15063;SDS011;7631;52.088;5.088;2023-04-25T11:24:27;2.97;;;1.00;;
15063;SDS011;7631;52.088;5.088;2023-04-25T11:26:52;2.93;;;1.10;;
15063;SDS011;7631;52.088;5.088;2023-04-25T11:29:17;1.67;;;0.70;;
15063;SDS011;7631;52.088;5.088;2023-04-25T11:31:43;2.93;;;0.90;;
15063;SDS011;7631;52.088;5.088;2023-04-25T11:34:10;1.67;;;1.10;;
15063;SDS011;7631;52.088;5.088;2023-04-25T11:36:35;2.67;;;1.10;;
15063;SDS011;7631;52.088;5.088;2023-04-25T11:39:01;2.00;;;1.40;;
15063;SDS011;7631;52.088;5.088;2023-04-25T11:41:26;1.90;;;0.80;;
15063;SDS011;7631;52.088;5.088;2023-04-25T11:43:51;2.90;;;1.00;;
15063;SDS011;7631;52.088;5.088;2023-04-25T11:46:19;2.73;;;1.00;;
15063;SDS011;7631;52.088;5.088;2023-04-25T11:48:45;1.30;;;0.80;;
15063;SDS011;7631;52.088;5.088;2023-04-25T11:51:10;2.23;;;0.80;;
15063;SDS011;7631;52.088;5.088;2023-04-25T11:53:36;2.53;;;0.80;;
15063;SDS011;7631;52.088;5.088;2023-04-25T11:56:01;2.40;;;0.70;;
15063;SDS011;7631;52.088;5.088;2023-04-25T11:58:27;2.23;;;0.87;;
15063;SDS011;7631;52.088;5.088;2023-04-25T12:00:52;1.83;;;0.73;;
15063;SDS011;7631;52.088;5.088;2023-04-25T12:03:18;2.77;;;0.87;;
15063;SDS011;7631;52.088;5.088;2023-04-25T12:05:44;2.37;;;1.00;;
15063;SDS011;7631;52.088;5.088;2023-04-25T12:08:10;2.10;;;0.87;;
15063;SDS011;7631;52.088;5.088;2023-04-25T12:10:37;3.07;;;0.97;;
15063;SDS011;7631;52.088;5.088;2023-04-25T12:13:17;2.70;;;0.80;;
15063;SDS011;7631;52.088;5.088;2023-04-25T12:15:42;2.00;;;1.00;;
15063;SDS011;7631;52.088;5.088;2023-04-25T12:18:07;2.17;;;1.20;;
15063;SDS011;7631;52.088;5.088;2023-04-25T12:20:32;2.77;;;0.90;;
15063;SDS011;7631;52.088;5.088;2023-04-25T12:22:58;2.47;;;0.90;;
15063;SDS011;7631;52.088;5.088;2023-04-25T12:25:40;3.43;;;1.13;;
15063;SDS011;7631;52.088;5.088;2023-04-25T12:28:13;1.80;;;0.93;;
15063;SDS011;7631;52.088;5.088;2023-04-25T12:30:54;4.17;;;1.03;;
15063;SDS011;7631;52.088;5.088;2023-04-25T12:33:20;1.77;;;0.73;;
15063;SDS011;7631;52.088;5.088;2023-04-25T12:35:46;2.70;;;0.90;;
15063;SDS011;7631;52.088;5.088;2023-04-25T12:38:11;2.17;;;0.93;;
15063;SDS011;7631;52.088;5.088;2023-04-25T12:40:36;1.73;;;1.07;;
15063;SDS011;7631;52.088;5.088;2023-04-25T12:43:01;4.60;;;1.40;;
15063;SDS011;7631;52.088;5.088;2023-04-25T12:45:26;2.77;;;1.10;;
15063;SDS011;7631;52.088;5.088;2023-04-25T12:47:52;1.97;;;1.00;;
15063;SDS011;7631;52.088;5.088;2023-04-25T12:50:17;3.83;;;1.27;;
15063;SDS011;7631;52.088;5.088;2023-04-25T12:52:42;3.53;;;1.30;;
15063;SDS011;7631;52.088;5.088;2023-04-25T12:55:07;2.67;;;1.30;;
15063;SDS011;7631;52.088;5.088;2023-04-25T12:57:33;2.00;;;1.00;;
15063;SDS011;7631;52.088;5.088;2023-04-25T13:00:03;3.77;;;1.40;;
15063;SDS011;7631;52.088;5.088;2023-04-25T13:02:32;2.37;;;0.90;;
15063;SDS011;7631;52.088;5.088;2023-04-25T13:04:57;2.10;;;1.20;;
15063;SDS011;7631;52.088;5.088;2023-04-25T13:07:22;3.83;;;1.13;;
15063;SDS011;7631;52.088;5.088;2023-04-25T13:09:47;3.50;;;1.30;;
15063;SDS011;7631;52.088;5.088;2023-04-25T13:12:13;3.20;;;1.00;;
15063;SDS011;7631;52.088;5.088;2023-04-25T13:14:38;3.10;;;1.20;;
15063;SDS011;7631;52.088;5.088;2023-04-25T13:17:03;1.33;;;1.00;;
15063;SDS011;7631;52.088;5.088;2023-04-25T13:19:28;2.83;;;1.10;;
15063;SDS011;7631;52.088;5.088;2023-04-25T13:21:54;4.20;;;1.10;;
15063;SDS011;7631;52.088;5.088;2023-04-25T13:24:19;3.57;;;1.00;;
15063;SDS011;7631;52.088;5.088;2023-04-25T13:26:44;4.10;;;1.20;;
15063;SDS011;7631;52.088;5.088;2023-04-25T13:29:10;2.37;;;0.90;;
15063;SDS011;7631;52.088;5.088;2023-04-25T13:31:35;2.80;;;1.10;;
15063;SDS011;7631;52.088;5.088;2023-04-25T13:34:01;2.37;;;0.83;;
15063;SDS011;7631;52.088;5.088;2023-04-25T13:36:26;2.73;;;0.97;;
15063;SDS011;7631;52.088;5.088;2023-04-25T13:38:52;3.03;;;1.00;;
15063;SDS011;7631;52.088;5.088;2023-04-25T13:41:18;2.10;;;0.80;;
15063;SDS011;7631;52.088;5.088;2023-04-25T13:43:45;4.07;;;1.00;;
15063;SDS011;7631;52.088;5.088;2023-04-25T13:46:12;2.83;;;0.90;;
15063;SDS011;7631;52.088;5.088;2023-04-25T13:48:38;3.63;;;1.13;;
15063;SDS011;7631;52.088;5.088;2023-04-25T13:51:03;2.97;;;1.10;;
15063;SDS011;7631;52.088;5.088;2023-04-25T13:53:28;2.63;;;1.17;;
15063;SDS011;7631;52.088;5.088;2023-04-25T13:55:53;2.40;;;1.03;;
15063;SDS011;7631;52.088;5.088;2023-04-25T13:58:19;3.73;;;1.00;;
15063;SDS011;7631;52.088;5.088;2023-04-25T14:00:45;2.67;;;1.20;;
15063;SDS011;7631;52.088;5.088;2023-04-25T14:03:11;3.90;;;1.27;;
15063;SDS011;7631;52.088;5.088;2023-04-25T14:05:36;2.70;;;1.00;;
15063;SDS011;7631;52.088;5.088;2023-04-25T14:08:03;3.53;;;1.20;;
15063;SDS011;7631;52.088;5.088;2023-04-25T14:10:29;2.80;;;1.07;;
15063;SDS011;7631;52.088;5.088;2023-04-25T14:12:54;3.03;;;0.90;;
15063;SDS011;7631;52.088;5.088;2023-04-25T14:15:19;4.73;;;1.10;;
15063;SDS011;7631;52.088;5.088;2023-04-25T14:17:45;3.03;;;1.20;;
15063;SDS011;7631;52.088;5.088;2023-04-25T14:20:10;2.33;;;1.10;;
15063;SDS011;7631;52.088;5.088;2023-04-25T14:22:36;2.70;;;1.13;;
15063;SDS011;7631;52.088;5.088;2023-04-25T14:25:01;2.17;;;1.10;;
15063;SDS011;7631;52.088;5.088;2023-04-25T14:27:27;4.77;;;1.23;;
15063;SDS011;7631;52.088;5.088;2023-04-25T14:29:52;2.00;;;1.10;;
15063;SDS011;7631;52.088;5.088;2023-04-25T14:32:18;3.73;;;1.30;;
15063;SDS011;7631;52.088;5.088;2023-04-25T14:34:43;4.87;;;1.57;;
15063;SDS011;7631;52.088;5.088;2023-04-25T14:37:08;2.63;;;1.30;;
15063;SDS011;7631;52.088;5.088;2023-04-25T14:39:33;2.60;;;0.90;;
15063;SDS011;7631;52.088;5.088;2023-04-25T14:41:59;3.67;;;1.20;;
15063;SDS011;7631;52.088;5.088;2023-04-25T14:44:24;2.53;;;1.00;;
15063;SDS011;7631;52.088;5.088;2023-04-25T14:46:50;1.87;;;1.07;;
15063;SDS011;7631;52.088;5.088;2023-04-25T14:49:16;2.60;;;1.37;;
15063;SDS011;7631;52.088;5.088;2023-04-25T14:51:41;3.50;;;1.10;;
15063;SDS011;7631;52.088;5.088;2023-04-25T14:54:07;2.27;;;1.00;;
15063;SDS011;7631;52.088;5.088;2023-04-25T14:56:32;2.63;;;1.10;;
15063;SDS011;7631;52.088;5.088;2023-04-25T14:58:57;2.57;;;1.07;;